ADDS METAR Data INFO
IDs: Format: Raw Decoded Include TAF

Data at: 2005 UTC 19 Oct 2017

KTSP 191955Z AUTO 30017G24KT 8SM CLR 20/M03 A3003 RMK AO2
KTSP 191935Z AUTO 31018G26KT 7SM CLR 19/M03 A3004 RMK AO2
KTSP 191915Z AUTO 30017G22KT 6SM HZ CLR 19/M01 A3004 RMK AO2
KTSP 191855Z AUTO 31019G24KT 5SM HZ CLR 18/00 A3004 RMK AO2
KTSP 191835Z AUTO 31015G23KT 5SM HZ CLR 18/02 A3005 RMK AO2
KTSP 191815Z AUTO 32016G25KT 5SM HZ CLR 18/02 A3005 RMK AO2
KTSP 191755Z AUTO 31016G23KT 5SM HZ CLR 17/02 A3006 RMK AO2
KTSP 191735Z AUTO 32016KT 6SM HZ CLR 17/00 A3005 RMK AO2
KTSP 191715Z AUTO 30014KT 6SM HZ CLR 17/M02 A3005 RMK AO2
KTSP 191655Z AUTO 30012G15KT 6SM HZ CLR 17/M02 A3006 RMK AO2
KTSP 191635Z AUTO 31010KT 7SM CLR 16/M02 A3006 RMK AO2
KTSP 191615Z AUTO 30009KT 7SM CLR 15/M02 A3005 RMK AO2
KTSP 191555Z AUTO 31010KT 7SM CLR 15/M02 A3005 RMK AO2
KTSP 191535Z AUTO 30010KT 6SM HZ CLR 14/M02 A3006 RMK AO2
KTSP 191515Z AUTO 30009KT 7SM CLR 13/M01 A3005 RMK AO2
KTSP 191455Z AUTO 31010KT 6SM HZ CLR 13/M01 A3005 RMK AO2
KTSP 191435Z AUTO 30007KT 5SM HZ CLR 10/M02 A3004 RMK AO2
KTSP 191415Z AUTO 30003KT 5SM HZ CLR 08/M02 A3004 RMK AO2
KTSP 191355Z AUTO 00000KT 7SM CLR 07/M02 A3004 RMK AO2
KTSP 191335Z AUTO 00000KT 8SM CLR 07/M03 A3004 RMK AO2
KTSP 191315Z AUTO 00000KT 8SM CLR 08/M03 A3004 RMK AO2
KTSP 191255Z AUTO 00000KT 7SM CLR 10/M02 A3004 RMK AO2
KTSP 191235Z AUTO 00000KT 8SM CLR 10/M02 A3004 RMK AO2
KTSP 191215Z AUTO 00000KT 8SM CLR 09/M02 A3004 RMK AO2
KTSP 191155Z AUTO 31003KT 9SM CLR 09/M03 A3005 RMK AO2
KTSP 191135Z AUTO 25006KT 9SM CLR 09/M04 A3005 RMK AO2
KTSP 191115Z AUTO 26007KT 8SM CLR 09/M03 A3004 RMK AO2
KTSP 191055Z AUTO 00000KT 8SM CLR 09/M02 A3004 RMK AO2
KTSP 191035Z AUTO 26004KT 9SM CLR 09/M04 A3004 RMK AO2
KTSP 191015Z AUTO 25003KT 9SM CLR 10/M04 A3004 RMK AO2
KTSP 190935Z AUTO 25005KT 8SM CLR 10/M03 A3007 RMK AO2
KTSP 190915Z AUTO 26005KT 8SM CLR 10/M03 A3007 RMK AO2
KTSP 190855Z AUTO 27006KT 9SM CLR 10/M03 A3007 RMK AO2
KTSP 190835Z AUTO 29003KT 7SM CLR 10/M03 A3007 RMK AO2
KTSP 190815Z AUTO 29005KT 10SM CLR 11/M05 A3007 RMK AO2
KTSP 190755Z AUTO 26005KT 10SM CLR 11/M05 A3007 RMK AO2
KTSP 190735Z AUTO 28005KT 10SM CLR 11/M05 A3008 RMK AO2
KTSP 190715Z AUTO 28004KT 7SM CLR 11/M02 A3008 RMK AO2
KTSP 190655Z AUTO 26004KT 8SM CLR 12/M02 A3008 RMK AO2
KTSP 190635Z AUTO 26004KT 8SM CLR 12/M02 A3009 RMK AO2
KTSP 190615Z AUTO 26005KT 8SM CLR 13/M02 A3009 RMK AO2
KTSP 190555Z AUTO 25005KT 8SM CLR 13/M02 A3010 RMK AO2
KTSP 190535Z AUTO 00000KT 8SM CLR 13/M02 A3010 RMK AO2
KTSP 190515Z AUTO 31003KT 8SM CLR 12/M01 A3010 RMK AO2
KTSP 190455Z AUTO 28004KT 8SM CLR 13/M02 A3010 RMK AO2
KTSP 190435Z AUTO 26005KT 8SM CLR 13/M02 A3010 RMK AO2
KTSP 190415Z AUTO 00000KT 8SM CLR 13/M02 A3010 RMK AO2
KTSP 190355Z AUTO 26004KT 10SM CLR 13/M03 A3010 RMK AO2
KTSP 190335Z AUTO 00000KT 8SM CLR 14/M02 A3010 RMK AO2
KTSP 190315Z AUTO 00000KT 8SM CLR 14/M02 A3010 RMK AO2
KTSP 190255Z AUTO 00000KT 8SM CLR 14/M02 A3010 RMK AO2
KTSP 190235Z AUTO 25004KT 9SM CLR 14/M02 A3010 RMK AO2
KTSP 190215Z AUTO 26003KT 8SM CLR 15/M02 A3010 RMK AO2
KTSP 190155Z AUTO 32005KT 10SM CLR 15/M02 A3010 RMK AO2
KTSP 190135Z AUTO 31008KT 9SM CLR 17/M02 A3010 RMK AO2
KTSP 190115Z AUTO 31007KT 9SM FEW090 17/M02 A3010 RMK AO2
KTSP 190055Z AUTO 31009KT 7SM SCT090 18/M01 A3010 RMK AO2
KTSP 190035Z AUTO 30010G15KT 7SM BKN100 19/00 A3009 RMK AO2
KTSP 190015Z AUTO 30011KT 7SM OVC100 20/00 A3009 RMK AO2
KTSP 182355Z AUTO 30011G15KT 7SM BKN100 20/00 A3010 RMK AO2
KTSP 182335Z AUTO 31010KT 8SM CLR 20/00 A3010 RMK AO2
KTSP 182315Z AUTO 31011KT 8SM FEW100 21/00 A3010 RMK AO2
KTSP 182255Z AUTO 31011KT 8SM BKN090 21/00 A3010 RMK AO2
KTSP 182235Z AUTO 31011KT 7SM BKN090 21/00 A3010 RMK AO2
KTSP 182215Z AUTO 31014KT 8SM SCT110 23/M01 A3010 RMK AO2
KTSP 182155Z AUTO 31011KT 9SM BKN110 24/00 A3010 RMK AO2
KTSP 182135Z AUTO 31010KT 7SM SCT090 OVC110 23/00 A3011 RMK AO2
KTSP 182115Z AUTO 32011KT 8SM FEW090 BKN110 23/00 A3011 RMK AO2
KTSP 182055Z AUTO 31011KT 7SM FEW110 24/M01 A3011 RMK AO2
KTSP 182035Z AUTO 31012KT 9SM CLR 24/M02 A3012 RMK AO2
KTSP 182015Z AUTO 32012KT 9SM SCT120 24/M03 A3013 RMK AO2
KTSP 181955Z AUTO 32010KT 9SM BKN120 24/M03 A3014 RMK AO2
KTSP 181935Z AUTO 31011KT 9SM CLR 24/M03 A3014 RMK AO2
KTSP 181915Z AUTO 31012G16KT 8SM FEW110 23/M02 A3015 RMK AO2
KTSP 181855Z AUTO 31012KT 7SM SCT100 23/M02 A3015 RMK AO2
KTSP 181835Z AUTO 29011KT 7SM BKN090 23/M02 A3016 RMK AO2
KTSP 181815Z AUTO 31010KT 10SM FEW090 FEW110 23/M05 A3016 RMK AO2
KTSP 181755Z AUTO 30010KT 10SM CLR 23/M08 A3016 RMK AO2
KTSP 181735Z AUTO 32007KT 10SM CLR 22/M08 A3016 RMK AO2
KTSP 181715Z AUTO 30006KT 8SM CLR 20/M04 A3016 RMK AO2
KTSP 181655Z AUTO 00000KT 5SM HZ FEW120 18/00 A3016 RMK AO2
KTSP 181635Z AUTO 00000KT 5SM HZ FEW095 BKN120 17/01 A3017 RMK AO2
KTSP 181615Z AUTO 00000KT 5SM HZ BKN095 BKN120 17/00 A3016 RMK AO2
KTSP 181555Z AUTO 23003KT 5SM HZ FEW095 SCT120 17/00 A3016 RMK AO2
KTSP 181535Z AUTO 31004KT 5SM HZ SCT095 15/00 A3016 RMK AO2
KTSP 181515Z AUTO 00000KT 5SM HZ FEW095 15/00 A3015 RMK AO2
KTSP 181455Z AUTO 26004KT 6SM HZ CLR 14/00 A3015 RMK AO2
KTSP 181435Z AUTO 27003KT 5SM HZ CLR 13/00 A3015 RMK AO2
KTSP 181415Z AUTO 00000KT 5SM HZ FEW120 13/00 A3015 RMK AO2
KTSP 181355Z AUTO 29003KT 7SM FEW120 13/00 A3015 RMK AO2
KTSP 181335Z AUTO 30003KT 7SM CLR 13/00 A3015 RMK AO2
KTSP 181315Z AUTO 25003KT 7SM CLR 12/00 A3015 RMK AO2
KTSP 181255Z AUTO 29005KT 7SM CLR 12/00 A3015 RMK AO2
KTSP 181235Z AUTO 00000KT 7SM FEW100 12/00 A3015 RMK AO2
KTSP 181215Z AUTO 27005KT 7SM BKN100 12/00 A3014 RMK AO2
KTSP 181155Z AUTO 26005KT 7SM BKN100 13/00 A3015 RMK AO2
KTSP 181135Z AUTO 00000KT 7SM CLR 13/00 A3015 RMK AO2
KTSP 181115Z AUTO 30004KT 7SM CLR 13/00 A3015 RMK AO2
KTSP 181055Z AUTO 25004KT 7SM CLR 12/00 A3015 RMK AO2
KTSP 181035Z AUTO 26005KT 7SM CLR 13/00 A3015 RMK AO2
KTSP 181015Z AUTO 27005KT 7SM CLR 12/00 A3015 RMK AO2
KTSP 180955Z AUTO 00000KT 7SM CLR 12/00 A3015 RMK AO2
KTSP 180935Z AUTO 28005KT 7SM CLR 12/00 A3016 RMK AO2
KTSP 180915Z AUTO 32003KT 7SM CLR 12/00 A3016 RMK AO2
KTSP 180855Z AUTO 00000KT 7SM CLR 13/00 A3017 RMK AO2
KTSP 180835Z AUTO 25005KT 7SM CLR 13/00 A3017 RMK AO2
KTSP 180815Z AUTO 27006KT 7SM CLR 13/00 A3017 RMK AO2